sensor_id;sensor_type;location;lat;lon;timestamp;P1;durP1;ratioP1;P2;durP2;ratioP2
40058;SDS011;25763;49.972;8.568;2022-07-26T00:01:10;155.82;;;148.02;;
40058;SDS011;25763;49.972;8.568;2022-07-26T00:03:36;147.40;;;139.98;;
40058;SDS011;25763;49.972;8.568;2022-07-26T00:06:01;156.20;;;148.45;;
40058;SDS011;25763;49.972;8.568;2022-07-26T00:08:26;165.68;;;157.27;;
40058;SDS011;25763;49.972;8.568;2022-07-26T00:10:52;157.70;;;149.80;;
40058;SDS011;25763;49.972;8.568;2022-07-26T00:13:18;165.57;;;157.32;;
40058;SDS011;25763;49.972;8.568;2022-07-26T00:15:46;175.30;;;166.57;;
40058;SDS011;25763;49.972;8.568;2022-07-26T00:18:12;167.23;;;158.93;;
40058;SDS011;25763;49.972;8.568;2022-07-26T00:20:38;172.00;;;163.48;;
40058;SDS011;25763;49.972;8.568;2022-07-26T00:23:04;162.77;;;154.63;;
40058;SDS011;25763;49.972;8.568;2022-07-26T00:25:29;167.93;;;159.52;;
40058;SDS011;25763;49.972;8.568;2022-07-26T00:27:55;170.75;;;162.20;;
40058;SDS011;25763;49.972;8.568;2022-07-26T00:30:20;169.70;;;161.20;;
40058;SDS011;25763;49.972;8.568;2022-07-26T00:32:46;171.95;;;163.43;;
40058;SDS011;25763;49.972;8.568;2022-07-26T00:35:11;171.45;;;162.88;;
40058;SDS011;25763;49.972;8.568;2022-07-26T00:37:37;151.05;;;143.45;;
40058;SDS011;25763;49.972;8.568;2022-07-26T00:40:04;163.10;;;154.98;;
40058;SDS011;25763;49.972;8.568;2022-07-26T00:42:30;138.15;;;131.20;;
40058;SDS011;25763;49.972;8.568;2022-07-26T00:44:55;147.02;;;139.68;;
40058;SDS011;25763;49.972;8.568;2022-07-26T00:47:21;129.35;;;122.85;;
40058;SDS011;25763;49.972;8.568;2022-07-26T00:49:46;116.22;;;110.25;;
40058;SDS011;25763;49.972;8.568;2022-07-26T00:52:11;119.68;;;113.53;;
40058;SDS011;25763;49.972;8.568;2022-07-26T00:54:38;121.43;;;115.35;;
40058;SDS011;25763;49.972;8.568;2022-07-26T00:57:08;126.68;;;120.28;;
40058;SDS011;25763;49.972;8.568;2022-07-26T00:59:33;142.35;;;135.20;;
40058;SDS011;25763;49.972;8.568;2022-07-26T01:01:59;135.52;;;128.73;;
40058;SDS011;25763;49.972;8.568;2022-07-26T01:04:24;134.13;;;127.43;;
40058;SDS011;25763;49.972;8.568;2022-07-26T01:06:51;133.38;;;126.32;;
40058;SDS011;25763;49.972;8.568;2022-07-26T01:09:17;132.10;;;125.30;;
40058;SDS011;25763;49.972;8.568;2022-07-26T01:11:43;142.02;;;134.93;;
40058;SDS011;25763;49.972;8.568;2022-07-26T01:14:09;121.63;;;115.45;;
40058;SDS011;25763;49.972;8.568;2022-07-26T01:16:35;144.77;;;137.57;;
40058;SDS011;25763;49.972;8.568;2022-07-26T01:19:00;136.30;;;129.50;;
40058;SDS011;25763;49.972;8.568;2022-07-26T01:21:29;148.13;;;140.65;;
40058;SDS011;25763;49.972;8.568;2022-07-26T01:23:55;140.18;;;133.15;;
40058;SDS011;25763;49.972;8.568;2022-07-26T01:26:20;138.98;;;132.02;;
40058;SDS011;25763;49.972;8.568;2022-07-26T01:28:45;141.38;;;134.32;;
40058;SDS011;25763;49.972;8.568;2022-07-26T01:31:13;138.95;;;132.02;;
40058;SDS011;25763;49.972;8.568;2022-07-26T01:33:39;134.63;;;127.88;;
40058;SDS011;25763;49.972;8.568;2022-07-26T01:36:05;132.82;;;126.18;;
40058;SDS011;25763;49.972;8.568;2022-07-26T01:38:30;133.00;;;126.35;;
40058;SDS011;25763;49.972;8.568;2022-07-26T01:40:56;123.47;;;117.28;;
40058;SDS011;25763;49.972;8.568;2022-07-26T01:43:21;136.15;;;129.35;;
40058;SDS011;25763;49.972;8.568;2022-07-26T01:45:46;122.15;;;116.05;;
40058;SDS011;25763;49.972;8.568;2022-07-26T01:48:12;118.35;;;112.35;;
40058;SDS011;25763;49.972;8.568;2022-07-26T01:50:37;108.20;;;102.85;;
40058;SDS011;25763;49.972;8.568;2022-07-26T01:53:03;122.28;;;116.20;;
40058;SDS011;25763;49.972;8.568;2022-07-26T01:55:28;108.32;;;102.95;;
40058;SDS011;25763;49.972;8.568;2022-07-26T01:57:54;113.50;;;107.88;;
40058;SDS011;25763;49.972;8.568;2022-07-26T02:00:19;114.70;;;109.03;;
40058;SDS011;25763;49.972;8.568;2022-07-26T02:02:45;122.57;;;116.47;;
40058;SDS011;25763;49.972;8.568;2022-07-26T02:05:10;123.18;;;117.05;;
40058;SDS011;25763;49.972;8.568;2022-07-26T02:07:37;125.45;;;119.05;;
40058;SDS011;25763;49.972;8.568;2022-07-26T02:10:05;117.95;;;112.10;;
40058;SDS011;25763;49.972;8.568;2022-07-26T02:12:31;118.38;;;112.43;;
40058;SDS011;25763;49.972;8.568;2022-07-26T02:14:57;116.00;;;110.20;;
40058;SDS011;25763;49.972;8.568;2022-07-26T02:17:23;107.43;;;102.07;;
40058;SDS011;25763;49.972;8.568;2022-07-26T02:19:48;111.53;;;106.00;;
40058;SDS011;25763;49.972;8.568;2022-07-26T02:22:14;97.22;;;92.40;;
40058;SDS011;25763;49.972;8.568;2022-07-26T02:24:39;109.32;;;103.88;;
40058;SDS011;25763;49.972;8.568;2022-07-26T02:27:05;106.60;;;101.28;;
40058;SDS011;25763;49.972;8.568;2022-07-26T02:29:30;102.10;;;97.03;;
40058;SDS011;25763;49.972;8.568;2022-07-26T02:31:56;116.25;;;110.47;;
40058;SDS011;25763;49.972;8.568;2022-07-26T02:34:21;110.47;;;104.93;;
40058;SDS011;25763;49.972;8.568;2022-07-26T02:36:47;102.35;;;97.30;;
40058;SDS011;25763;49.972;8.568;2022-07-26T02:39:13;121.57;;;115.50;;
40058;SDS011;25763;49.972;8.568;2022-07-26T02:41:38;125.78;;;119.53;;
40058;SDS011;25763;49.972;8.568;2022-07-26T02:44:04;127.82;;;121.47;;
40058;SDS011;25763;49.972;8.568;2022-07-26T02:46:31;103.72;;;98.55;;
40058;SDS011;25763;49.972;8.568;2022-07-26T02:48:56;107.70;;;102.35;;
40058;SDS011;25763;49.972;8.568;2022-07-26T02:51:23;86.15;;;81.70;;
40058;SDS011;25763;49.972;8.568;2022-07-26T02:53:49;85.07;;;80.85;;
40058;SDS011;25763;49.972;8.568;2022-07-26T02:56:14;81.93;;;77.80;;
40058;SDS011;25763;49.972;8.568;2022-07-26T02:58:39;74.78;;;71.00;;
40058;SDS011;25763;49.972;8.568;2022-07-26T03:01:05;73.32;;;69.63;;
40058;SDS011;25763;49.972;8.568;2022-07-26T03:03:30;71.15;;;67.55;;
40058;SDS011;25763;49.972;8.568;2022-07-26T03:05:55;60.20;;;57.15;;
40058;SDS011;25763;49.972;8.568;2022-07-26T03:08:21;61.45;;;58.35;;
40058;SDS011;25763;49.972;8.568;2022-07-26T03:10:46;70.68;;;67.13;;
40058;SDS011;25763;49.972;8.568;2022-07-26T03:13:12;68.15;;;64.70;;
40058;SDS011;25763;49.972;8.568;2022-07-26T03:15:37;61.65;;;58.55;;
40058;SDS011;25763;49.972;8.568;2022-07-26T03:18:02;63.20;;;59.47;;
40058;SDS011;25763;49.972;8.568;2022-07-26T03:20:28;56.67;;;53.80;;
40058;SDS011;25763;49.972;8.568;2022-07-26T03:22:53;55.17;;;52.35;;
40058;SDS011;25763;49.972;8.568;2022-07-26T03:25:18;54.75;;;51.88;;
40058;SDS011;25763;49.972;8.568;2022-07-26T03:27:44;61.70;;;58.55;;
40058;SDS011;25763;49.972;8.568;2022-07-26T03:30:09;54.67;;;51.92;;
40058;SDS011;25763;49.972;8.568;2022-07-26T03:32:35;48.83;;;46.33;;
40058;SDS011;25763;49.972;8.568;2022-07-26T03:35:01;56.78;;;53.90;;
40058;SDS011;25763;49.972;8.568;2022-07-26T03:37:27;58.25;;;55.33;;
40058;SDS011;25763;49.972;8.568;2022-07-26T03:39:52;53.65;;;50.92;;
40058;SDS011;25763;49.972;8.568;2022-07-26T03:42:19;54.67;;;51.90;;
40058;SDS011;25763;49.972;8.568;2022-07-26T03:44:45;50.38;;;47.80;;
40058;SDS011;25763;49.972;8.568;2022-07-26T03:47:10;48.83;;;46.33;;
40058;SDS011;25763;49.972;8.568;2022-07-26T03:49:35;55.72;;;52.88;;
40058;SDS011;25763;49.972;8.568;2022-07-26T03:52:01;59.28;;;56.30;;
40058;SDS011;25763;49.972;8.568;2022-07-26T03:54:26;56.88;;;54.00;;
40058;SDS011;25763;49.972;8.568;2022-07-26T03:56:52;49.88;;;47.35;;
40058;SDS011;25763;49.972;8.568;2022-07-26T03:59:17;48.90;;;46.40;;
40058;SDS011;25763;49.972;8.568;2022-07-26T04:01:43;47.58;;;45.10;;
40058;SDS011;25763;49.972;8.568;2022-07-26T04:04:10;46.67;;;44.30;;
40058;SDS011;25763;49.972;8.568;2022-07-26T04:06:37;43.28;;;41.05;;
40058;SDS011;25763;49.972;8.568;2022-07-26T04:09:03;49.92;;;47.40;;
40058;SDS011;25763;49.972;8.568;2022-07-26T04:11:29;39.70;;;37.65;;
40058;SDS011;25763;49.972;8.568;2022-07-26T04:13:55;48.03;;;45.58;;
40058;SDS011;25763;49.972;8.568;2022-07-26T04:16:21;43.70;;;41.45;;
40058;SDS011;25763;49.972;8.568;2022-07-26T04:18:46;42.85;;;40.67;;
40058;SDS011;25763;49.972;8.568;2022-07-26T04:21:11;43.13;;;40.92;;
40058;SDS011;25763;49.972;8.568;2022-07-26T04:23:37;46.35;;;44.00;;
40058;SDS011;25763;49.972;8.568;2022-07-26T04:26:02;42.85;;;40.65;;
40058;SDS011;25763;49.972;8.568;2022-07-26T04:28:28;38.38;;;36.42;;
40058;SDS011;25763;49.972;8.568;2022-07-26T04:30:54;40.88;;;38.80;;
40058;SDS011;25763;49.972;8.568;2022-07-26T04:33:20;39.40;;;37.35;;
40058;SDS011;25763;49.972;8.568;2022-07-26T04:35:45;41.53;;;39.38;;
40058;SDS011;25763;49.972;8.568;2022-07-26T04:38:11;41.80;;;39.63;;
40058;SDS011;25763;49.972;8.568;2022-07-26T04:40:36;35.80;;;33.92;;
40058;SDS011;25763;49.972;8.568;2022-07-26T04:43:02;31.98;;;29.98;;
40058;SDS011;25763;49.972;8.568;2022-07-26T04:45:28;35.80;;;33.92;;
40058;SDS011;25763;49.972;8.568;2022-07-26T04:47:54;36.22;;;34.38;;
40058;SDS011;25763;49.972;8.568;2022-07-26T04:50:20;38.08;;;36.10;;
40058;SDS011;25763;49.972;8.568;2022-07-26T04:52:47;35.08;;;33.25;;
40058;SDS011;25763;49.972;8.568;2022-07-26T04:55:14;32.45;;;30.75;;
40058;SDS011;25763;49.972;8.568;2022-07-26T04:57:40;32.67;;;30.98;;
40058;SDS011;25763;49.972;8.568;2022-07-26T05:00:07;32.80;;;31.10;;
40058;SDS011;25763;49.972;8.568;2022-07-26T05:02:34;33.83;;;32.08;;
40058;SDS011;25763;49.972;8.568;2022-07-26T05:04:59;30.67;;;29.08;;
40058;SDS011;25763;49.972;8.568;2022-07-26T05:07:24;36.13;;;34.25;;
40058;SDS011;25763;49.972;8.568;2022-07-26T05:09:50;29.70;;;28.13;;
40058;SDS011;25763;49.972;8.568;2022-07-26T05:12:15;31.73;;;30.08;;
40058;SDS011;25763;49.972;8.568;2022-07-26T05:14:40;31.25;;;29.63;;
40058;SDS011;25763;49.972;8.568;2022-07-26T05:17:06;25.13;;;23.75;;
40058;SDS011;25763;49.972;8.568;2022-07-26T05:19:31;29.02;;;27.13;;
40058;SDS011;25763;49.972;8.568;2022-07-26T05:21:57;26.67;;;25.23;;
40058;SDS011;25763;49.972;8.568;2022-07-26T05:24:22;31.00;;;29.38;;
40058;SDS011;25763;49.972;8.568;2022-07-26T05:26:48;27.95;;;26.45;;
40058;SDS011;25763;49.972;8.568;2022-07-26T05:29:13;19.85;;;18.75;;
40058;SDS011;25763;49.972;8.568;2022-07-26T05:31:39;22.27;;;21.08;;
40058;SDS011;25763;49.972;8.568;2022-07-26T05:34:04;17.40;;;16.42;;
40058;SDS011;25763;49.972;8.568;2022-07-26T05:36:30;18.00;;;17.00;;
40058;SDS011;25763;49.972;8.568;2022-07-26T05:38:55;13.93;;;13.13;;
40058;SDS011;25763;49.972;8.568;2022-07-26T05:41:20;15.48;;;14.60;;
40058;SDS011;25763;49.972;8.568;2022-07-26T05:43:46;13.77;;;12.98;;
40058;SDS011;25763;49.972;8.568;2022-07-26T05:46:11;13.80;;;13.00;;
40058;SDS011;25763;49.972;8.568;2022-07-26T05:48:37;15.48;;;14.57;;
40058;SDS011;25763;49.972;8.568;2022-07-26T05:51:03;23.65;;;22.40;;
40058;SDS011;25763;49.972;8.568;2022-07-26T05:53:28;25.25;;;23.90;;
40058;SDS011;25763;49.972;8.568;2022-07-26T05:55:53;28.83;;;27.20;;
40058;SDS011;25763;49.972;8.568;2022-07-26T05:58:19;40.45;;;38.38;;
40058;SDS011;25763;49.972;8.568;2022-07-26T06:00:44;43.80;;;41.50;;
40058;SDS011;25763;49.972;8.568;2022-07-26T06:03:09;48.33;;;45.88;;
40058;SDS011;25763;49.972;8.568;2022-07-26T06:05:48;46.95;;;44.58;;
40058;SDS011;25763;49.972;8.568;2022-07-26T06:08:14;43.08;;;40.88;;
40058;SDS011;25763;49.972;8.568;2022-07-26T06:10:39;55.83;;;53.00;;
40058;SDS011;25763;49.972;8.568;2022-07-26T06:13:05;78.18;;;74.22;;
40058;SDS011;25763;49.972;8.568;2022-07-26T06:15:30;67.30;;;63.92;;
40058;SDS011;25763;49.972;8.568;2022-07-26T06:17:55;73.55;;;69.85;;
40058;SDS011;25763;49.972;8.568;2022-07-26T06:20:21;70.45;;;66.90;;
40058;SDS011;25763;49.972;8.568;2022-07-26T06:22:46;78.00;;;74.07;;
40058;SDS011;25763;49.972;8.568;2022-07-26T06:25:12;69.07;;;65.57;;
40058;SDS011;25763;49.972;8.568;2022-07-26T06:27:37;74.78;;;71.03;;
40058;SDS011;25763;49.972;8.568;2022-07-26T06:30:03;89.63;;;85.13;;
40058;SDS011;25763;49.972;8.568;2022-07-26T06:32:28;90.70;;;86.13;;
40058;SDS011;25763;49.972;8.568;2022-07-26T06:34:54;101.25;;;96.20;;
40058;SDS011;25763;49.972;8.568;2022-07-26T06:37:19;112.10;;;106.45;;
40058;SDS011;25763;49.972;8.568;2022-07-26T06:39:44;115.40;;;109.63;;
40058;SDS011;25763;49.972;8.568;2022-07-26T06:42:10;119.63;;;113.60;;
40058;SDS011;25763;49.972;8.568;2022-07-26T06:44:35;135.38;;;128.50;;
40058;SDS011;25763;49.972;8.568;2022-07-26T06:47:01;120.97;;;114.72;;
40058;SDS011;25763;49.972;8.568;2022-07-26T06:49:26;115.18;;;109.32;;
40058;SDS011;25763;49.972;8.568;2022-07-26T06:51:51;123.22;;;116.93;;
40058;SDS011;25763;49.972;8.568;2022-07-26T06:54:17;121.38;;;115.18;;
40058;SDS011;25763;49.972;8.568;2022-07-26T06:56:42;159.13;;;151.05;;
40058;SDS011;25763;49.972;8.568;2022-07-26T06:59:08;155.57;;;147.68;;
40058;SDS011;25763;49.972;8.568;2022-07-26T07:01:34;167.52;;;159.02;;
40058;SDS011;25763;49.972;8.568;2022-07-26T07:03:59;160.00;;;151.82;;
40058;SDS011;25763;49.972;8.568;2022-07-26T07:06:24;156.85;;;148.82;;
40058;SDS011;25763;49.972;8.568;2022-07-26T07:08:50;155.77;;;147.85;;
40058;SDS011;25763;49.972;8.568;2022-07-26T07:11:15;157.48;;;149.50;;
40058;SDS011;25763;49.972;8.568;2022-07-26T07:13:41;160.50;;;152.30;;
40058;SDS011;25763;49.972;8.568;2022-07-26T07:16:06;130.02;;;123.38;;
40058;SDS011;25763;49.972;8.568;2022-07-26T07:18:32;131.35;;;124.63;;
40058;SDS011;25763;49.972;8.568;2022-07-26T07:20:57;124.88;;;118.50;;
40058;SDS011;25763;49.972;8.568;2022-07-26T07:23:22;135.63;;;128.70;;
40058;SDS011;25763;49.972;8.568;2022-07-26T07:25:48;140.73;;;133.55;;
40058;SDS011;25763;49.972;8.568;2022-07-26T07:28:14;139.07;;;132.02;;
40058;SDS011;25763;49.972;8.568;2022-07-26T07:30:39;154.20;;;146.40;;
40058;SDS011;25763;49.972;8.568;2022-07-26T07:33:04;154.05;;;146.23;;
40058;SDS011;25763;49.972;8.568;2022-07-26T07:35:30;166.50;;;158.10;;
40058;SDS011;25763;49.972;8.568;2022-07-26T07:37:55;124.53;;;118.13;;
40058;SDS011;25763;49.972;8.568;2022-07-26T07:40:21;110.00;;;104.40;;
40058;SDS011;25763;49.972;8.568;2022-07-26T07:42:46;118.63;;;112.60;;
40058;SDS011;25763;49.972;8.568;2022-07-26T07:45:12;135.98;;;129.05;;
40058;SDS011;25763;49.972;8.568;2022-07-26T07:47:37;142.45;;;135.23;;
40058;SDS011;25763;49.972;8.568;2022-07-26T07:50:03;141.57;;;134.43;;
40058;SDS011;25763;49.972;8.568;2022-07-26T07:52:29;142.77;;;135.55;;
40058;SDS011;25763;49.972;8.568;2022-07-26T07:54:54;142.93;;;135.73;;
40058;SDS011;25763;49.972;8.568;2022-07-26T07:57:19;151.07;;;143.55;;
40058;SDS011;25763;49.972;8.568;2022-07-26T07:59:45;156.13;;;148.30;;
40058;SDS011;25763;49.972;8.568;2022-07-26T08:02:10;144.00;;;136.80;;
40058;SDS011;25763;49.972;8.568;2022-07-26T08:04:38;149.18;;;141.73;;
40058;SDS011;25763;49.972;8.568;2022-07-26T08:07:03;136.27;;;129.43;;
40058;SDS011;25763;49.972;8.568;2022-07-26T08:09:29;129.43;;;122.93;;
40058;SDS011;25763;49.972;8.568;2022-07-26T08:11:54;134.73;;;128.00;;
40058;SDS011;25763;49.972;8.568;2022-07-26T08:14:20;123.38;;;117.22;;
40058;SDS011;25763;49.972;8.568;2022-07-26T08:16:45;118.93;;;113.03;;
40058;SDS011;25763;49.972;8.568;2022-07-26T08:19:10;127.53;;;121.20;;
40058;SDS011;25763;49.972;8.568;2022-07-26T08:21:36;130.98;;;124.47;;
40058;SDS011;25763;49.972;8.568;2022-07-26T08:24:01;68.38;;;64.97;;
40058;SDS011;25763;49.972;8.568;2022-07-26T08:26:27;67.30;;;63.90;;
40058;SDS011;25763;49.972;8.568;2022-07-26T08:28:52;65.25;;;61.95;;
40058;SDS011;25763;49.972;8.568;2022-07-26T08:31:17;92.68;;;88.07;;
40058;SDS011;25763;49.972;8.568;2022-07-26T08:33:45;160.30;;;152.30;;
40058;SDS011;25763;49.972;8.568;2022-07-26T08:36:10;208.27;;;198.10;;
40058;SDS011;25763;49.972;8.568;2022-07-26T08:38:36;180.45;;;171.55;;
40058;SDS011;25763;49.972;8.568;2022-07-26T08:41:01;165.68;;;157.52;;
40058;SDS011;25763;49.972;8.568;2022-07-26T08:43:27;216.07;;;205.55;;
40058;SDS011;25763;49.972;8.568;2022-07-26T08:45:53;234.30;;;222.90;;
40058;SDS011;25763;49.972;8.568;2022-07-26T08:48:25;316.55;;;301.00;;
40058;SDS011;25763;49.972;8.568;2022-07-26T08:50:51;307.30;;;292.23;;
40058;SDS011;25763;49.972;8.568;2022-07-26T08:53:19;305.02;;;290.05;;
40058;SDS011;25763;49.972;8.568;2022-07-26T08:55:44;281.85;;;268.13;;
40058;SDS011;25763;49.972;8.568;2022-07-26T08:58:10;345.77;;;328.67;;
40058;SDS011;25763;49.972;8.568;2022-07-26T09:00:35;321.67;;;305.83;;
40058;SDS011;25763;49.972;8.568;2022-07-26T09:03:01;286.45;;;272.48;;
40058;SDS011;25763;49.972;8.568;2022-07-26T09:07:57;277.07;;;263.53;;
40058;SDS011;25763;49.972;8.568;2022-07-26T09:10:23;233.88;;;222.55;;
40058;SDS011;25763;49.972;8.568;2022-07-26T09:12:56;223.05;;;212.23;;
40058;SDS011;25763;49.972;8.568;2022-07-26T09:15:23;257.02;;;244.50;;
40058;SDS011;25763;49.972;8.568;2022-07-26T09:17:54;341.33;;;324.08;;
40058;SDS011;25763;49.972;8.568;2022-07-26T09:20:22;313.33;;;297.85;;
40058;SDS011;25763;49.972;8.568;2022-07-26T09:22:56;281.10;;;267.35;;
40058;SDS011;25763;49.972;8.568;2022-07-26T09:25:34;339.27;;;322.20;;
40058;SDS011;25763;49.972;8.568;2022-07-26T09:28:19;344.00;;;327.00;;
40058;SDS011;25763;49.972;8.568;2022-07-26T09:30:50;348.58;;;331.23;;
40058;SDS011;25763;49.972;8.568;2022-07-26T09:33:17;354.20;;;336.52;;
40058;SDS011;25763;49.972;8.568;2022-07-26T09:35:42;358.77;;;340.80;;
40058;SDS011;25763;49.972;8.568;2022-07-26T09:38:24;355.55;;;337.58;;
40058;SDS011;25763;49.972;8.568;2022-07-26T09:40:50;359.77;;;341.65;;
40058;SDS011;25763;49.972;8.568;2022-07-26T09:43:19;386.67;;;367.25;;
40058;SDS011;25763;49.972;8.568;2022-07-26T09:45:44;357.10;;;339.13;;
40058;SDS011;25763;49.972;8.568;2022-07-26T09:48:10;371.00;;;352.27;;
40058;SDS011;25763;49.972;8.568;2022-07-26T09:50:36;378.35;;;359.20;;
40058;SDS011;25763;49.972;8.568;2022-07-26T09:53:05;379.38;;;360.15;;
40058;SDS011;25763;49.972;8.568;2022-07-26T09:55:52;388.45;;;368.60;;
40058;SDS011;25763;49.972;8.568;2022-07-26T09:58:19;381.38;;;361.92;;
40058;SDS011;25763;49.972;8.568;2022-07-26T10:00:45;349.63;;;332.05;;
40058;SDS011;25763;49.972;8.568;2022-07-26T10:03:11;376.52;;;357.30;;
40058;SDS011;25763;49.972;8.568;2022-07-26T10:05:37;353.15;;;335.33;;
40058;SDS011;25763;49.972;8.568;2022-07-26T10:08:03;375.05;;;355.95;;
40058;SDS011;25763;49.972;8.568;2022-07-26T10:12:58;371.83;;;352.92;;
40058;SDS011;25763;49.972;8.568;2022-07-26T10:17:58;374.67;;;355.55;;
40058;SDS011;25763;49.972;8.568;2022-07-26T10:20:40;362.77;;;344.25;;
40058;SDS011;25763;49.972;8.568;2022-07-26T10:23:53;361.83;;;343.42;;
40058;SDS011;25763;49.972;8.568;2022-07-26T10:26:00;356.50;;;338.42;;
40058;SDS011;25763;49.972;8.568;2022-07-26T10:28:28;358.90;;;340.75;;
40058;SDS011;25763;49.972;8.568;2022-07-26T10:33:46;356.35;;;338.20;;
40058;SDS011;25763;49.972;8.568;2022-07-26T10:36:26;336.92;;;319.85;;
40058;SDS011;25763;49.972;8.568;2022-07-26T10:41:40;328.58;;;311.98;;
40058;SDS011;25763;49.972;8.568;2022-07-26T10:44:10;328.88;;;312.33;;
40058;SDS011;25763;49.972;8.568;2022-07-26T10:46:53;339.45;;;322.27;;
40058;SDS011;25763;49.972;8.568;2022-07-26T10:49:19;340.05;;;322.88;;
40058;SDS011;25763;49.972;8.568;2022-07-26T10:51:44;325.58;;;309.20;;
40058;SDS011;25763;49.972;8.568;2022-07-26T10:54:10;304.95;;;289.73;;
40058;SDS011;25763;49.972;8.568;2022-07-26T10:56:38;295.95;;;281.23;;
40058;SDS011;25763;49.972;8.568;2022-07-26T10:59:03;273.67;;;260.13;;
40058;SDS011;25763;49.972;8.568;2022-07-26T11:03:59;246.27;;;234.10;;
40058;SDS011;25763;49.972;8.568;2022-07-26T11:06:26;256.73;;;244.02;;
40058;SDS011;25763;49.972;8.568;2022-07-26T11:08:52;274.67;;;261.05;;
40058;SDS011;25763;49.972;8.568;2022-07-26T11:11:29;254.82;;;242.20;;
40058;SDS011;25763;49.972;8.568;2022-07-26T11:14:03;269.27;;;255.98;;
40058;SDS011;25763;49.972;8.568;2022-07-26T11:16:28;281.65;;;267.73;;
40058;SDS011;25763;49.972;8.568;2022-07-26T11:19:10;293.27;;;278.65;;
40058;SDS011;25763;49.972;8.568;2022-07-26T11:21:39;309.23;;;293.80;;
40058;SDS011;25763;49.972;8.568;2022-07-26T11:24:05;322.10;;;305.90;;
40058;SDS011;25763;49.972;8.568;2022-07-26T11:26:31;297.15;;;282.42;;
40058;SDS011;25763;49.972;8.568;2022-07-26T11:29:05;299.27;;;284.33;;
40058;SDS011;25763;49.972;8.568;2022-07-26T11:34:07;314.10;;;298.50;;
40058;SDS011;25763;49.972;8.568;2022-07-26T11:36:44;304.40;;;289.20;;
40058;SDS011;25763;49.972;8.568;2022-07-26T11:39:11;336.20;;;319.42;;
40058;SDS011;25763;49.972;8.568;2022-07-26T11:41:38;294.05;;;279.50;;
40058;SDS011;25763;49.972;8.568;2022-07-26T11:44:04;297.50;;;282.70;;
40058;SDS011;25763;49.972;8.568;2022-07-26T11:46:35;314.98;;;299.33;;
40058;SDS011;25763;49.972;8.568;2022-07-26T11:49:02;287.85;;;273.65;;
40058;SDS011;25763;49.972;8.568;2022-07-26T11:51:30;291.73;;;277.27;;
40058;SDS011;25763;49.972;8.568;2022-07-26T11:53:55;351.08;;;333.15;;
40058;SDS011;25763;49.972;8.568;2022-07-26T11:56:24;330.42;;;313.73;;
40058;SDS011;25763;49.972;8.568;2022-07-26T11:58:51;319.42;;;303.35;;
40058;SDS011;25763;49.972;8.568;2022-07-26T12:01:19;319.02;;;302.92;;
40058;SDS011;25763;49.972;8.568;2022-07-26T12:03:47;304.85;;;289.65;;
40058;SDS011;25763;49.972;8.568;2022-07-26T12:06:22;290.20;;;275.75;;
40058;SDS011;25763;49.972;8.568;2022-07-26T12:08:52;279.70;;;265.85;;
40058;SDS011;25763;49.972;8.568;2022-07-26T12:11:23;340.98;;;323.75;;
40058;SDS011;25763;49.972;8.568;2022-07-26T12:14:00;283.48;;;269.58;;
40058;SDS011;25763;49.972;8.568;2022-07-26T12:16:34;346.55;;;328.83;;
40058;SDS011;25763;49.972;8.568;2022-07-26T12:21:43;339.05;;;321.92;;
40058;SDS011;25763;49.972;8.568;2022-07-26T12:24:10;329.35;;;312.73;;
40058;SDS011;25763;49.972;8.568;2022-07-26T12:26:37;321.13;;;304.95;;
40058;SDS011;25763;49.972;8.568;2022-07-26T12:29:03;296.67;;;281.90;;
40058;SDS011;25763;49.972;8.568;2022-07-26T12:35:01;300.95;;;285.98;;
40058;SDS011;25763;49.972;8.568;2022-07-26T12:37:37;293.67;;;279.15;;
40058;SDS011;25763;49.972;8.568;2022-07-26T12:42:43;288.55;;;274.25;;
40058;SDS011;25763;49.972;8.568;2022-07-26T12:45:23;317.75;;;301.83;;
40058;SDS011;25763;49.972;8.568;2022-07-26T12:47:51;292.08;;;277.63;;
40058;SDS011;25763;49.972;8.568;2022-07-26T12:50:20;297.52;;;282.73;;
40058;SDS011;25763;49.972;8.568;2022-07-26T12:52:47;276.25;;;262.65;;
40058;SDS011;25763;49.972;8.568;2022-07-26T12:55:14;317.23;;;301.40;;
40058;SDS011;25763;49.972;8.568;2022-07-26T12:57:43;306.27;;;291.02;;
40058;SDS011;25763;49.972;8.568;2022-07-26T13:00:09;306.08;;;290.85;;
40058;SDS011;25763;49.972;8.568;2022-07-26T13:02:36;302.13;;;287.05;;
40058;SDS011;25763;49.972;8.568;2022-07-26T13:05:03;294.75;;;280.13;;
40058;SDS011;25763;49.972;8.568;2022-07-26T13:07:28;339.92;;;322.77;;
40058;SDS011;25763;49.972;8.568;2022-07-26T13:09:54;301.10;;;286.02;;
40058;SDS011;25763;49.972;8.568;2022-07-26T13:12:20;317.98;;;301.92;;
40058;SDS011;25763;49.972;8.568;2022-07-26T13:14:46;339.63;;;322.35;;
40058;SDS011;25763;49.972;8.568;2022-07-26T13:17:11;311.42;;;295.73;;
40058;SDS011;25763;49.972;8.568;2022-07-26T13:19:37;321.88;;;305.55;;
40058;SDS011;25763;49.972;8.568;2022-07-26T13:22:03;319.70;;;303.58;;
40058;SDS011;25763;49.972;8.568;2022-07-26T13:24:29;349.08;;;331.38;;
40058;SDS011;25763;49.972;8.568;2022-07-26T13:26:55;325.92;;;309.40;;
40058;SDS011;25763;49.972;8.568;2022-07-26T13:29:22;321.13;;;304.90;;
40058;SDS011;25763;49.972;8.568;2022-07-26T13:31:47;328.80;;;312.25;;
40058;SDS011;25763;49.972;8.568;2022-07-26T13:34:15;347.85;;;330.10;;
40058;SDS011;25763;49.972;8.568;2022-07-26T13:36:40;328.65;;;312.10;;
40058;SDS011;25763;49.972;8.568;2022-07-26T13:39:06;313.80;;;298.15;;
40058;SDS011;25763;49.972;8.568;2022-07-26T13:41:31;313.40;;;297.65;;
40058;SDS011;25763;49.972;8.568;2022-07-26T13:43:57;335.77;;;318.85;;
40058;SDS011;25763;49.972;8.568;2022-07-26T13:46:23;313.92;;;296.25;;
40058;SDS011;25763;49.972;8.568;2022-07-26T13:48:50;331.95;;;315.08;;
40058;SDS011;25763;49.972;8.568;2022-07-26T13:51:16;323.95;;;307.60;;
40058;SDS011;25763;49.972;8.568;2022-07-26T13:53:41;329.30;;;312.55;;
40058;SDS011;25763;49.972;8.568;2022-07-26T13:56:07;297.83;;;282.80;;
40058;SDS011;25763;49.972;8.568;2022-07-26T13:58:33;305.40;;;289.92;;
40058;SDS011;25763;49.972;8.568;2022-07-26T14:00:59;318.10;;;302.02;;
40058;SDS011;25763;49.972;8.568;2022-07-26T14:03:25;304.63;;;289.23;;
40058;SDS011;25763;49.972;8.568;2022-07-26T14:05:51;300.83;;;285.70;;
40058;SDS011;25763;49.972;8.568;2022-07-26T14:08:16;326.33;;;309.77;;
40058;SDS011;25763;49.972;8.568;2022-07-26T14:10:41;324.70;;;308.27;;
40058;SDS011;25763;49.972;8.568;2022-07-26T14:13:07;336.55;;;319.55;;
40058;SDS011;25763;49.972;8.568;2022-07-26T14:15:33;320.63;;;304.65;;
40058;SDS011;25763;49.972;8.568;2022-07-26T14:17:59;332.60;;;315.80;;
40058;SDS011;25763;49.972;8.568;2022-07-26T14:20:25;264.45;;;251.45;;
40058;SDS011;25763;49.972;8.568;2022-07-26T14:22:51;282.00;;;268.02;;
40058;SDS011;25763;49.972;8.568;2022-07-26T14:25:17;336.85;;;319.90;;
40058;SDS011;25763;49.972;8.568;2022-07-26T14:27:43;325.45;;;309.05;;